createdAt,value
2023-02-09T00:09:58.581Z,580.1225
2023-02-09T00:25:00.892Z,397.82394
2023-02-09T00:40:03.158Z,284.67313
2023-02-09T00:55:05.400Z,127.51919
2023-02-09T01:10:07.895Z,19.75649
2023-02-09T01:25:10.133Z,0.89802
2023-02-09T01:40:12.470Z,0
2023-02-09T01:55:14.912Z,0
2023-02-09T02:10:17.186Z,0
2023-02-09T02:25:19.725Z,0
2023-02-09T02:40:21.996Z,0
2023-02-09T02:55:24.453Z,0
2023-02-09T03:10:26.868Z,0
2023-02-09T03:25:29.196Z,0
2023-02-09T03:40:31.398Z,0
2023-02-09T03:55:33.661Z,0
2023-02-09T04:10:35.957Z,0
2023-02-09T04:25:38.347Z,0
2023-02-09T04:40:40.717Z,0
2023-02-09T04:55:42.950Z,0
2023-02-09T05:10:45.482Z,0
2023-02-09T05:25:47.995Z,0
2023-02-09T05:40:50.929Z,0
2023-02-09T05:55:53.413Z,0
2023-02-09T06:10:55.934Z,0
2023-02-09T06:25:58.176Z,0
2023-02-09T06:41:00.483Z,0
2023-02-09T06:56:02.702Z,0
2023-02-09T07:11:04.915Z,0
2023-02-09T07:26:07.159Z,0
2023-02-09T07:41:09.523Z,0
2023-02-09T07:56:11.862Z,0
2023-02-09T08:11:14.082Z,0
2023-02-09T08:26:16.293Z,0
2023-02-09T08:41:18.531Z,0
2023-02-09T08:56:20.746Z,0
2023-02-09T09:11:23.216Z,0
2023-02-09T09:26:25.449Z,0
2023-02-09T09:41:27.672Z,0
2023-02-09T09:56:29.924Z,0
2023-02-09T10:11:32.130Z,0
2023-02-09T10:26:34.320Z,0
2023-02-09T10:41:36.645Z,0
2023-02-09T10:56:38.818Z,0
2023-02-09T11:11:41.114Z,0
2023-02-09T11:26:43.333Z,0
2023-02-09T11:41:45.607Z,0
2023-02-09T11:56:47.819Z,0
2023-02-09T12:11:50.060Z,0
2023-02-09T12:26:52.349Z,0
2023-02-09T12:41:54.577Z,0
2023-02-09T12:56:56.802Z,0
2023-02-09T13:11:59.026Z,0
2023-02-09T13:27:01.286Z,0
2023-02-09T13:42:03.523Z,0
2023-02-09T13:57:05.846Z,0
2023-02-09T14:12:09.629Z,0
2023-02-09T14:27:11.962Z,0
2023-02-09T14:42:14.225Z,0.89802
2023-02-09T14:57:16.477Z,21.55254
2023-02-09T15:12:18.701Z,43.10508
2023-02-09T15:27:20.961Z,191.27879
2023-02-09T15:42:23.244Z,448.11322
2023-02-09T15:57:25.542Z,857.61145
2023-02-09T16:12:27.739Z,1029.13379
2023-02-09T16:27:29.990Z,1629.91077
2023-02-09T16:42:32.273Z,2115.74097
2023-02-09T16:57:34.441Z,2128.31323
2023-02-09T17:12:36.694Z,2415.68042
2023-02-09T17:27:39.011Z,2861.99756
2023-02-09T17:42:41.217Z,1809.51526
2023-02-09T17:57:43.467Z,2115.74097
2023-02-09T18:12:45.664Z,1809.51526
2023-02-09T18:27:48.016Z,1700.85461
2023-02-09T18:42:51.388Z,1672.1178
2023-02-09T18:57:53.678Z,1912.78784
2023-02-09T19:12:55.855Z,2358.20703
2023-02-09T19:27:58.148Z,2593.48901
2023-02-09T19:43:00.735Z,2829.6687
2023-02-09T19:58:02.970Z,3663.03369
2023-02-09T20:13:05.311Z,3584.90576
2023-02-09T20:28:07.539Z,2294.44751
2023-02-09T20:43:09.857Z,1869.68274
2023-02-09T20:58:12.123Z,2222.60571
2023-02-09T21:13:14.442Z,1540.10852
2023-02-09T21:28:16.876Z,1471.85889
2023-02-09T21:43:19.169Z,1192.57385
2023-02-09T21:58:21.465Z,1329.97131
2023-02-09T22:13:23.713Z,1314.70496
2023-02-09T22:28:26.112Z,1718.81506
2023-02-09T22:43:28.614Z,1431.44788
2023-02-09T22:58:30.913Z,927.65723
2023-02-09T23:13:33.189Z,806.42419
2023-02-09T23:28:35.407Z,407.70221
2023-02-09T23:43:37.741Z,705.84564
2023-02-09T23:58:40.060Z,426.56067
